Weather at Batch End Farm Airstrip

Public forecast

Using degrees Celsius for public forecast. Weather courtesy of forecast.io.

Closest aviation weather report (METAR) to Batch End Farm Airstrip

Closest report is Bristol Airport, 10.2 nm (19.0 km) ENE. Retrieved 2021/06/12 11:20 UTC (39 minutes ago):

EGGD 121120Z 24007KT 200V260 9999 SCT018 18/13 Q1025

Closest aviation forecast (TAF) to Batch End Farm Airstrip

Closest forecast is Bristol Airport, 10.2 nm (19.0 km) ENE. Retrieved 2021/06/12 06:00 UTC (6 hours ago):

TAF EGGD 120455Z 1206/1306 28008KT 8000 BKN008 BECMG 1206/1208 9999 FEW008